EGOM - Spadeadam
Distance from station: E 5mi, 14km
Updated: 02/20/2018 2:50pm
Clear
Clear
 Wind from NNE
Wind: NNE 3 mph , 6 km/h
Temperature: 30°F , -1°C
Dew Point: 30°F , -1°C
Humidity: 100%
Barometer: 30.33 inHg , 1027 hPa
Clouds: Clear
Visibility: 6 miles , 10 km
2018/02/20 22:50 EGOM 202250Z AUTO 02003KT 9999 NCD M01/M01 Q1027